createdAt,value
2018-04-16T00:01:03.494Z,12.90
2018-04-16T00:03:31.735Z,12.80
2018-04-16T00:05:59.878Z,12.70
2018-04-16T00:08:28.838Z,12.50
2018-04-16T00:10:56.957Z,12.50
2018-04-16T00:13:25.989Z,12.40
2018-04-16T00:15:54.127Z,12.40
2018-04-16T00:18:22.266Z,12.30
2018-04-16T00:20:51.239Z,12.20
2018-04-16T00:23:19.516Z,12.10
2018-04-16T00:25:49.182Z,12.10
2018-04-16T00:28:17.294Z,12.10
2018-04-16T00:30:45.443Z,12.10
2018-04-16T00:33:19.368Z,12.10
2018-04-16T00:35:53.105Z,12.10
2018-04-16T00:38:27.821Z,12.00
2018-04-16T00:41:01.703Z,12.00
2018-04-16T00:43:35.522Z,11.80
2018-04-16T00:46:09.229Z,11.70
2018-04-16T00:48:43.150Z,11.60
2018-04-16T00:51:17.054Z,11.60
2018-04-16T00:54:03.764Z,11.40
2018-04-16T00:56:37.644Z,11.40
2018-04-16T01:01:50.599Z,11.30
2018-04-16T01:04:24.478Z,11.30
2018-04-16T01:06:58.261Z,11.30
2018-04-16T01:09:32.211Z,11.20
2018-04-16T01:12:06.540Z,11.10
2018-04-16T01:14:40.972Z,11.10
2018-04-16T01:17:16.062Z,10.90
2018-04-16T01:19:49.932Z,10.90
2018-04-16T01:22:24.553Z,10.90
2018-04-16T01:24:58.754Z,10.80
2018-04-16T01:27:33.417Z,10.80
2018-04-16T01:30:07.298Z,10.80
2018-04-16T01:32:42.652Z,10.80
2018-04-16T01:35:16.488Z,10.80
2018-04-16T01:37:50.413Z,10.80
2018-04-16T01:40:24.208Z,10.80
2018-04-16T01:42:58.496Z,10.70
2018-04-16T01:45:32.242Z,10.70
2018-04-16T01:48:06.196Z,10.80
2018-04-16T01:50:41.273Z,10.70
2018-04-16T01:53:15.018Z,10.70
2018-04-16T01:55:48.785Z,10.70
2018-04-16T01:58:22.678Z,10.70
2018-04-16T02:00:56.736Z,10.70
2018-04-16T02:03:30.486Z,10.60
2018-04-16T02:06:04.307Z,10.60
2018-04-16T02:08:38.284Z,10.60
2018-04-16T02:11:12.778Z,10.60
2018-04-16T02:13:46.693Z,10.50
2018-04-16T02:16:22.142Z,10.50
2018-04-16T02:18:56.784Z,10.50
2018-04-16T02:21:42.477Z,10.50
2018-04-16T02:24:17.128Z,10.50
2018-04-16T02:26:51.068Z,10.50
2018-04-16T02:29:24.960Z,10.50
2018-04-16T02:31:59.099Z,10.60
2018-04-16T02:34:32.890Z,10.60
2018-04-16T02:37:06.714Z,10.60
2018-04-16T02:39:40.669Z,10.60
2018-04-16T02:42:14.427Z,10.70
2018-04-16T02:44:59.252Z,10.60
2018-04-16T02:47:33.173Z,10.60
2018-04-16T02:50:07.426Z,10.50
2018-04-16T02:52:41.355Z,10.40
2018-04-16T02:55:16.340Z,10.30
2018-04-16T02:57:50.499Z,10.30
2018-04-16T03:00:24.364Z,10.30
2018-04-16T03:02:58.274Z,10.30
2018-04-16T03:05:33.039Z,10.30
2018-04-16T04:30:16.620Z,10.20
2018-04-16T04:32:44.796Z,9.10
2018-04-16T04:35:13.052Z,9.10
2018-04-16T04:37:41.289Z,9.10
2018-04-16T04:40:09.427Z,9.10
2018-04-16T04:42:38.317Z,9.10
2018-04-16T04:45:06.453Z,9.00
2018-04-16T04:47:34.569Z,9.10
2018-04-16T04:50:03.006Z,9.10
2018-04-16T04:52:31.198Z,9.10
2018-04-16T04:55:00.101Z,9.20
2018-04-16T04:57:30.388Z,9.20
2018-04-16T04:59:59.576Z,9.30
2018-04-16T05:02:27.697Z,9.30
2018-04-16T05:04:56.692Z,9.40
2018-04-16T05:07:25.692Z,9.40
2018-04-16T05:09:54.069Z,9.40
2018-04-16T05:12:22.934Z,9.60
2018-04-16T05:14:51.210Z,9.60
2018-04-16T05:17:19.487Z,9.70
2018-04-16T05:19:47.652Z,9.80
2018-04-16T05:22:15.782Z,9.80
2018-04-16T05:24:44.084Z,9.90
2018-04-16T05:27:12.720Z,10.10
2018-04-16T05:29:41.612Z,10.20
2018-04-16T05:32:09.764Z,10.20
2018-04-16T05:34:37.968Z,10.30
2018-04-16T05:37:06.227Z,10.40
2018-04-16T05:39:35.100Z,10.50
2018-04-16T05:42:03.369Z,10.50
2018-04-16T05:44:31.507Z,10.50
2018-04-16T05:47:00.110Z,10.60
2018-04-16T05:49:28.202Z,10.60
2018-04-16T05:51:56.353Z,10.60
2018-04-16T05:54:24.554Z,10.70
2018-04-16T05:56:52.673Z,10.90
2018-04-16T05:59:20.815Z,11.10
2018-04-16T06:01:49.723Z,11.20
2018-04-16T06:04:17.842Z,11.10
2018-04-16T06:06:45.964Z,11.20
2018-04-16T06:09:14.089Z,11.20
2018-04-16T06:11:42.349Z,11.30
2018-04-16T06:14:11.118Z,11.30
2018-04-16T06:16:39.228Z,11.30
2018-04-16T06:19:08.001Z,11.40
2018-04-16T06:21:36.826Z,11.50
2018-04-16T06:24:07.006Z,11.50
2018-04-16T06:26:35.221Z,11.60
2018-04-16T06:29:03.340Z,11.60
2018-04-16T06:31:31.467Z,11.70
2018-04-16T06:34:00.465Z,11.90
2018-04-16T06:36:29.702Z,11.90
2018-04-16T06:38:57.813Z,12.10
2018-04-16T06:41:25.929Z,12.30
2018-04-16T06:43:54.052Z,12.40
2018-04-16T06:46:23.696Z,12.60
2018-04-16T06:48:52.733Z,12.70
2018-04-16T06:51:20.888Z,12.70
2018-04-16T06:53:49.169Z,12.70
2018-04-16T06:56:17.294Z,12.70
2018-04-16T06:58:45.591Z,12.60
2018-04-16T07:01:14.473Z,12.50
2018-04-16T07:03:43.428Z,12.50
2018-04-16T07:06:11.718Z,12.50
2018-04-16T07:08:39.956Z,12.60
2018-04-16T07:11:08.126Z,12.60
2018-04-16T07:13:36.292Z,12.60
2018-04-16T07:16:04.424Z,12.60
2018-04-16T07:18:33.529Z,12.70
2018-04-16T07:21:04.721Z,12.70
2018-04-16T07:23:34.237Z,12.70
2018-04-16T07:26:02.561Z,12.70
2018-04-16T07:28:30.955Z,12.80
2018-04-16T07:30:59.073Z,12.80
2018-04-16T07:33:27.249Z,12.80
2018-04-16T07:35:55.492Z,12.80
2018-04-16T07:38:23.785Z,12.80
2018-04-16T07:40:51.994Z,12.80
2018-04-16T07:43:20.121Z,12.90
2018-04-16T07:45:48.544Z,12.90
2018-04-16T07:48:16.728Z,13.00
2018-04-16T07:50:44.945Z,13.10
2018-04-16T07:53:13.208Z,13.30
2018-04-16T07:55:41.675Z,13.40
2018-04-16T07:58:09.776Z,13.70
2018-04-16T08:00:37.977Z,14.00
2018-04-16T08:03:06.296Z,14.20
2018-04-16T08:05:35.312Z,14.60
2018-04-16T08:08:03.445Z,14.60
2018-04-16T08:10:31.581Z,14.80
2018-04-16T08:12:59.721Z,14.90
2018-04-16T08:15:28.603Z,14.80
2018-04-16T08:17:57.642Z,14.80
2018-04-16T08:20:25.767Z,14.80
2018-04-16T08:22:54.646Z,14.60
2018-04-16T08:25:23.563Z,14.50
2018-04-16T08:27:51.703Z,14.40
2018-04-16T08:30:21.360Z,14.50
2018-04-16T08:32:49.502Z,14.50
2018-04-16T08:35:18.601Z,14.80
2018-04-16T08:37:47.624Z,14.70
2018-04-16T08:40:15.811Z,14.70
2018-04-16T08:42:44.765Z,14.60
2018-04-16T08:45:13.648Z,14.70
2018-04-16T08:47:42.529Z,14.70
2018-04-16T08:50:10.717Z,14.70
2018-04-16T08:52:39.697Z,14.90
2018-04-16T08:55:08.533Z,15.20
2018-04-16T08:57:36.653Z,15.20
2018-04-16T09:00:04.770Z,15.60
2018-04-16T09:02:32.991Z,16.20
2018-04-16T09:05:01.175Z,16.70
2018-04-16T09:07:29.302Z,17.20
2018-04-16T09:09:57.445Z,17.10
2018-04-16T09:12:25.604Z,17.30
2018-04-16T09:14:55.057Z,17.10
2018-04-16T09:17:23.429Z,17.00
2018-04-16T09:19:53.102Z,16.50
2018-04-16T09:22:21.983Z,16.50
2018-04-16T09:24:50.867Z,16.40
2018-04-16T09:27:19.765Z,16.60
2018-04-16T09:29:48.644Z,16.70
2018-04-16T09:32:17.837Z,16.60
2018-04-16T09:34:47.455Z,16.50
2018-04-16T09:37:16.339Z,16.30
2018-04-16T09:39:44.473Z,16.20
2018-04-16T09:42:12.764Z,16.30
2018-04-16T09:44:41.201Z,16.10
2018-04-16T09:47:09.335Z,16.00
2018-04-16T09:49:39.569Z,15.90
2018-04-16T09:52:07.736Z,15.90
2018-04-16T09:54:35.913Z,16.00
2018-04-16T09:57:04.212Z,16.50
2018-04-16T09:59:33.087Z,17.00
2018-04-16T10:02:02.088Z,17.00
2018-04-16T10:04:31.646Z,17.50
2018-04-16T10:06:59.756Z,17.50
2018-04-16T10:09:27.892Z,17.70
2018-04-16T10:11:55.995Z,17.40
2018-04-16T10:14:24.376Z,17.60
2018-04-16T10:16:54.004Z,17.60
2018-04-16T10:19:23.001Z,17.70
2018-04-16T10:21:51.916Z,18.10
2018-04-16T10:24:20.043Z,18.10
2018-04-16T10:26:48.159Z,18.40
2018-04-16T10:29:16.909Z,18.50
2018-04-16T10:31:45.029Z,18.40
2018-04-16T10:34:13.165Z,18.50
2018-04-16T10:36:42.031Z,18.20
2018-04-16T10:39:10.340Z,18.20
2018-04-16T10:41:38.607Z,17.80
2018-04-16T10:44:07.488Z,17.60
2018-04-16T10:46:36.368Z,17.10
2018-04-16T10:49:04.483Z,17.00
2018-04-16T10:51:32.586Z,16.80
2018-04-16T10:54:01.433Z,16.90
2018-04-16T10:56:29.559Z,16.90
2018-04-16T10:58:57.666Z,17.00
2018-04-16T11:01:26.605Z,16.90
2018-04-16T11:03:54.710Z,16.90
2018-04-16T11:06:22.831Z,17.00
2018-04-16T11:08:50.945Z,17.20
2018-04-16T11:11:19.065Z,17.40
2018-04-16T11:13:47.760Z,17.50
2018-04-16T11:16:15.962Z,17.30
2018-04-16T11:18:44.107Z,17.00
2018-04-16T11:21:12.447Z,16.80
2018-04-16T11:23:40.613Z,16.60
2018-04-16T11:26:08.972Z,16.50
2018-04-16T11:28:37.099Z,16.70
2018-04-16T11:31:05.997Z,17.10
2018-04-16T11:33:34.110Z,17.10
2018-04-16T11:36:03.076Z,17.70
2018-04-16T11:38:31.194Z,17.70
2018-04-16T11:40:59.516Z,18.00
2018-04-16T11:43:27.633Z,18.00
2018-04-16T11:45:55.926Z,18.00
2018-04-16T11:48:24.817Z,18.10
2018-04-16T11:50:52.908Z,18.20
2018-04-16T11:53:21.923Z,18.30
2018-04-16T11:55:50.028Z,18.30
2018-04-16T11:58:18.489Z,18.40
2018-04-16T12:00:46.967Z,18.80
2018-04-16T12:03:15.222Z,19.10
2018-04-16T12:05:44.097Z,19.40
2018-04-16T12:08:13.106Z,19.50
2018-04-16T12:10:41.221Z,19.50
2018-04-16T12:13:10.139Z,19.50
2018-04-16T12:15:38.263Z,19.50
2018-04-16T12:18:06.379Z,19.30
2018-04-16T12:20:34.483Z,19.30
2018-04-16T12:23:03.401Z,19.30
2018-04-16T12:25:31.704Z,19.30
2018-04-16T12:28:00.006Z,19.10
2018-04-16T12:30:28.128Z,18.90
2018-04-16T12:32:56.242Z,18.70
2018-04-16T12:35:24.624Z,18.40
2018-04-16T12:37:53.037Z,18.50
2018-04-16T12:40:21.141Z,18.60
2018-04-16T12:42:49.245Z,18.30
2018-04-16T12:45:17.390Z,18.30
2018-04-16T12:47:45.811Z,18.30
2018-04-16T12:50:13.920Z,18.40
2018-04-16T12:52:42.037Z,18.70
2018-04-16T12:55:10.212Z,18.70
2018-04-16T12:57:38.904Z,19.00
2018-04-16T13:00:07.438Z,19.30
2018-04-16T13:02:35.568Z,19.40
2018-04-16T13:05:04.663Z,19.30
2018-04-16T13:07:34.250Z,19.20
2018-04-16T13:10:02.617Z,19.20
2018-04-16T13:12:30.716Z,19.00
2018-04-16T13:14:58.832Z,18.80
2018-04-16T13:17:27.251Z,18.80
2018-04-16T13:19:55.345Z,19.00
2018-04-16T13:22:23.452Z,18.90
2018-04-16T13:24:51.623Z,19.20
2018-04-16T13:27:19.873Z,19.40
2018-04-16T13:29:48.484Z,19.60
2018-04-16T13:32:18.731Z,19.50
2018-04-16T13:34:47.789Z,19.40
2018-04-16T13:37:16.233Z,19.30
2018-04-16T13:39:44.333Z,19.20
2018-04-16T13:42:13.220Z,19.60
2018-04-16T13:44:42.111Z,19.80
2018-04-16T13:47:10.983Z,19.50
2018-04-16T13:49:39.085Z,19.50
2018-04-16T13:52:07.966Z,19.30
2018-04-16T13:54:36.843Z,19.00
2018-04-16T13:57:04.960Z,19.00
2018-04-16T13:59:34.686Z,18.90
2018-04-16T14:02:02.939Z,18.70
2018-04-16T14:04:31.038Z,18.70
2018-04-16T14:06:59.239Z,19.00
2018-04-16T14:09:27.405Z,19.10
2018-04-16T14:11:55.563Z,19.10
2018-04-16T14:14:24.059Z,19.00
2018-04-16T14:16:53.676Z,18.30
2018-04-16T14:19:21.912Z,18.30
2018-04-16T14:21:50.237Z,18.30
2018-04-16T14:24:18.538Z,18.10
2018-04-16T14:26:47.084Z,18.10
2018-04-16T14:29:15.232Z,18.10
2018-04-16T14:31:43.340Z,18.40
2018-04-16T14:34:11.602Z,18.80
2018-04-16T14:36:39.730Z,19.40
2018-04-16T14:39:07.945Z,19.70
2018-04-16T14:41:36.176Z,19.60
2018-04-16T14:44:05.255Z,19.30
2018-04-16T14:46:34.136Z,19.20
2018-04-16T14:49:03.025Z,19.20
2018-04-16T14:51:32.237Z,18.90
2018-04-16T14:54:01.096Z,18.90
2018-04-16T14:56:29.199Z,18.90
2018-04-16T14:58:58.082Z,18.80
2018-04-16T15:01:26.971Z,19.10
2018-04-16T15:03:55.836Z,19.20
2018-04-16T15:06:23.952Z,19.20
2018-04-16T15:08:52.084Z,19.40
2018-04-16T15:11:21.743Z,19.80
2018-04-16T15:13:51.338Z,20.00
2018-04-16T15:16:19.441Z,20.00
2018-04-16T15:18:47.549Z,20.20
2018-04-16T15:21:15.692Z,20.20
2018-04-16T15:23:44.744Z,20.10
2018-04-16T15:26:13.014Z,20.10
2018-04-16T15:28:41.909Z,19.30
2018-04-16T15:31:11.330Z,19.10
2018-04-16T15:33:40.116Z,19.00
2018-04-16T15:36:08.382Z,19.70
2018-04-16T15:38:37.268Z,20.40
2018-04-16T15:41:06.158Z,20.70
2018-04-16T15:43:35.394Z,20.40
2018-04-16T15:46:03.504Z,20.40
2018-04-16T15:48:31.621Z,19.90
2018-04-16T15:50:59.769Z,19.60
2018-04-16T15:53:28.654Z,20.10
2018-04-16T15:55:56.816Z,20.10
2018-04-16T15:58:24.910Z,20.20
2018-04-16T16:00:53.790Z,20.50
2018-04-16T16:03:22.669Z,21.20
2018-04-16T16:05:50.808Z,21.10
2018-04-16T16:08:18.931Z,21.80
2018-04-16T16:10:47.818Z,22.40
2018-04-16T16:13:17.595Z,22.20
2018-04-16T16:15:45.717Z,22.20
2018-04-16T16:18:14.591Z,20.70
2018-04-16T16:20:43.494Z,20.20
2018-04-16T16:23:12.825Z,20.60
2018-04-16T16:25:40.958Z,20.60
2018-04-16T16:28:09.143Z,21.00
2018-04-16T16:30:38.013Z,20.90
2018-04-16T16:33:06.482Z,20.80
2018-04-16T16:35:34.605Z,20.50
2018-04-16T16:38:02.962Z,20.30
2018-04-16T16:40:31.901Z,20.80
2018-04-16T16:43:00.937Z,21.00
2018-04-16T16:45:29.872Z,21.20
2018-04-16T16:47:58.039Z,21.10
2018-04-16T16:50:26.157Z,21.20
2018-04-16T16:52:54.325Z,21.60
2018-04-16T16:55:22.436Z,22.00
2018-04-16T16:57:51.037Z,22.10
2018-04-16T17:00:19.146Z,22.50
2018-04-16T17:02:48.004Z,22.50
2018-04-16T17:05:16.133Z,22.20
2018-04-16T17:07:44.285Z,21.90
2018-04-16T17:10:12.417Z,21.50
2018-04-16T17:12:40.743Z,21.10
2018-04-16T17:15:08.869Z,21.00
2018-04-16T17:17:36.988Z,21.00
2018-04-16T17:20:05.207Z,20.70
2018-04-16T17:22:34.088Z,19.30
2018-04-16T17:25:02.969Z,18.80
2018-04-16T17:27:32.119Z,18.40
2018-04-16T17:30:00.420Z,18.40
2018-04-16T17:32:29.343Z,17.80
2018-04-16T17:34:58.327Z,17.80
2018-04-16T17:37:27.299Z,17.80
2018-04-16T17:39:56.333Z,17.70
2018-04-16T17:42:25.208Z,17.70
2018-04-16T17:44:54.321Z,17.60
2018-04-16T17:47:22.450Z,17.60
2018-04-16T17:49:50.599Z,17.50
2018-04-16T17:52:18.799Z,17.30
2018-04-16T17:54:47.177Z,17.20
2018-04-16T17:57:15.289Z,17.00
2018-04-16T17:59:43.707Z,16.90
2018-04-16T18:02:12.137Z,16.70
2018-04-16T18:04:41.451Z,16.40
2018-04-16T18:07:09.554Z,16.40
2018-04-16T18:09:38.063Z,16.30
2018-04-16T18:12:06.203Z,16.20
2018-04-16T18:14:34.321Z,16.00
2018-04-16T18:17:02.437Z,16.00
2018-04-16T18:19:30.756Z,15.90
2018-04-16T18:22:00.828Z,15.70
2018-04-16T18:24:28.969Z,15.70
2018-04-16T18:26:57.910Z,15.60
2018-04-16T18:29:26.042Z,15.60
2018-04-16T18:31:54.986Z,15.30
2018-04-16T18:34:23.121Z,15.30
2018-04-16T18:36:51.278Z,15.20
2018-04-16T18:39:20.157Z,15.00
2018-04-16T18:41:48.404Z,14.90
2018-04-16T18:44:16.531Z,14.80
2018-04-16T18:46:44.703Z,14.80
2018-04-16T18:49:12.841Z,14.70
2018-04-16T18:51:41.058Z,14.60
2018-04-16T18:54:09.923Z,14.50
2018-04-16T18:56:38.877Z,14.40
2018-04-16T18:59:07.028Z,14.40
2018-04-16T19:01:35.169Z,14.30
2018-04-16T19:04:04.791Z,14.10
2018-04-16T19:06:33.124Z,14.10
2018-04-16T19:09:01.245Z,14.10
2018-04-16T19:11:29.532Z,13.90
2018-04-16T19:13:57.672Z,13.90
2018-04-16T19:16:25.808Z,13.80
2018-04-16T19:18:53.971Z,13.70
2018-04-16T19:21:27.818Z,13.70
2018-04-16T19:23:56.713Z,13.70
2018-04-16T19:26:25.860Z,13.60
2018-04-16T19:28:54.066Z,13.60
2018-04-16T19:31:22.199Z,13.60
2018-04-16T19:33:56.161Z,13.50
2018-04-16T19:36:25.196Z,13.30
2018-04-16T19:38:54.439Z,13.30
2018-04-16T19:41:22.607Z,13.20
2018-04-16T19:43:50.756Z,13.20
2018-04-16T19:46:18.869Z,13.10
2018-04-16T19:48:52.666Z,13.00
2018-04-16T19:51:21.472Z,12.90
2018-04-16T19:53:50.359Z,12.70
2018-04-16T19:56:25.293Z,12.70
2018-04-16T19:58:54.188Z,12.70
2018-04-16T20:01:23.111Z,12.60
2018-04-16T20:03:56.846Z,12.60
2018-04-16T20:06:24.973Z,12.50
2018-04-16T20:08:53.860Z,12.50
2018-04-16T20:11:22.766Z,12.50
2018-04-16T20:13:51.317Z,12.40
2018-04-16T20:16:20.223Z,12.40
2018-04-16T20:18:49.096Z,12.20
2018-04-16T20:21:18.475Z,12.10
2018-04-16T20:23:46.599Z,12.10
2018-04-16T20:26:14.890Z,12.00
2018-04-16T20:28:43.250Z,11.90
2018-04-16T20:31:12.128Z,11.80
2018-04-16T20:33:41.365Z,11.80
2018-04-16T20:36:09.564Z,11.70
2018-04-16T20:38:37.649Z,11.70
2018-04-16T20:41:05.801Z,11.60
2018-04-16T20:43:33.910Z,11.60
2018-04-16T20:46:02.795Z,11.50
2018-04-16T20:48:31.133Z,11.50
2018-04-16T20:50:59.326Z,11.40
2018-04-16T20:53:27.440Z,11.40
2018-04-16T20:55:56.558Z,11.20
2018-04-16T20:58:24.782Z,11.20
2018-04-16T21:00:52.921Z,11.10
2018-04-16T21:03:21.065Z,11.10
2018-04-16T21:05:49.966Z,11.00
2018-04-16T21:08:18.183Z,11.00
2018-04-16T21:10:46.730Z,11.00
2018-04-16T21:13:14.926Z,11.00
2018-04-16T21:15:43.235Z,10.90
2018-04-16T21:18:13.091Z,10.80
2018-04-16T21:20:41.234Z,10.80
2018-04-16T21:23:10.117Z,10.70
2018-04-16T21:25:39.007Z,10.70
2018-04-16T21:28:07.910Z,10.70
2018-04-16T21:30:36.809Z,10.70
2018-04-16T21:33:05.714Z,10.60
2018-04-16T21:35:35.088Z,10.50
2018-04-16T21:38:03.994Z,10.50
2018-04-16T21:40:32.905Z,10.40
2018-04-16T21:43:01.096Z,10.40
2018-04-16T21:45:29.211Z,10.40
2018-04-16T21:47:58.217Z,10.30
2018-04-16T21:50:27.176Z,10.20
2018-04-16T21:52:55.383Z,10.20
2018-04-16T21:55:24.319Z,10.10
2018-04-16T21:57:52.724Z,10.10
2018-04-16T22:00:21.751Z,10.00
2018-04-16T22:02:50.716Z,10.00
2018-04-16T22:05:18.835Z,10.00
2018-04-16T22:07:47.043Z,10.00
2018-04-16T22:10:15.176Z,9.90
2018-04-16T22:12:43.294Z,9.90
2018-04-16T22:15:11.409Z,9.90
2018-04-16T22:17:40.296Z,9.90
2018-04-16T22:20:09.163Z,9.90
2018-04-16T22:22:37.267Z,9.80
2018-04-16T22:25:05.414Z,9.80
2018-04-16T22:27:33.655Z,9.70
2018-04-16T22:30:02.151Z,9.60
2018-04-16T22:32:30.275Z,9.50
2018-04-16T22:34:58.627Z,9.50
2018-04-16T22:37:26.763Z,9.50
2018-04-16T22:39:54.938Z,9.40
2018-04-16T22:42:23.148Z,9.40
2018-04-16T22:44:51.262Z,9.30
2018-04-16T22:47:19.466Z,9.30
2018-04-16T22:49:48.165Z,9.30
2018-04-16T22:52:16.291Z,9.20
2018-04-16T22:54:44.438Z,9.10
2018-04-16T22:57:12.539Z,9.00
2018-04-16T22:59:40.733Z,8.90
2018-04-16T23:02:08.859Z,8.90
2018-04-16T23:04:37.318Z,8.80
2018-04-16T23:07:05.439Z,8.80
2018-04-16T23:09:33.547Z,8.80
2018-04-16T23:12:01.674Z,8.70
2018-04-16T23:14:30.361Z,8.70
2018-04-16T23:16:58.607Z,8.70
2018-04-16T23:19:27.484Z,8.60
2018-04-16T23:21:57.094Z,8.60
2018-04-16T23:24:25.297Z,8.60
2018-04-16T23:26:54.637Z,8.60
2018-04-16T23:29:22.827Z,8.60
2018-04-16T23:31:51.381Z,8.60
2018-04-16T23:34:20.023Z,8.50
2018-04-16T23:36:48.233Z,8.50
2018-04-16T23:39:16.383Z,8.50
2018-04-16T23:41:45.252Z,8.40
2018-04-16T23:44:13.369Z,8.40
2018-04-16T23:46:41.537Z,8.40
2018-04-16T23:49:09.671Z,8.40
2018-04-16T23:51:38.273Z,8.40
2018-04-16T23:54:07.172Z,8.40
2018-04-16T23:56:36.060Z,8.40
2018-04-16T23:59:04.989Z,8.40
